sensor_id;sensor_type;location;lat;lon;timestamp;P1;durP1;ratioP1;P2;durP2;ratioP2
813;SDS011;389;48.710;9.392;2022-07-12T00:01:31;6.80;;;5.90;;
813;SDS011;389;48.710;9.392;2022-07-12T00:03:57;7.00;;;6.30;;
813;SDS011;389;48.710;9.392;2022-07-12T00:06:22;7.43;;;5.83;;
813;SDS011;389;48.710;9.392;2022-07-12T00:08:48;7.00;;;6.30;;
813;SDS011;389;48.710;9.392;2022-07-12T00:11:13;6.90;;;6.20;;
813;SDS011;389;48.710;9.392;2022-07-12T00:13:39;6.73;;;6.13;;
813;SDS011;389;48.710;9.392;2022-07-12T00:16:05;7.37;;;6.10;;
813;SDS011;389;48.710;9.392;2022-07-12T00:18:30;7.80;;;6.07;;
813;SDS011;389;48.710;9.392;2022-07-12T00:20:56;7.60;;;6.90;;
813;SDS011;389;48.710;9.392;2022-07-12T00:23:22;7.40;;;6.70;;
813;SDS011;389;48.710;9.392;2022-07-12T00:25:47;7.40;;;6.60;;
813;SDS011;389;48.710;9.392;2022-07-12T00:28:13;7.00;;;6.40;;
813;SDS011;389;48.710;9.392;2022-07-12T00:30:39;7.60;;;6.80;;
813;SDS011;389;48.710;9.392;2022-07-12T00:33:04;8.17;;;7.37;;
813;SDS011;389;48.710;9.392;2022-07-12T00:35:30;7.83;;;6.50;;
813;SDS011;389;48.710;9.392;2022-07-12T00:37:55;8.50;;;6.70;;
813;SDS011;389;48.710;9.392;2022-07-12T00:40:21;9.50;;;6.40;;
813;SDS011;389;48.710;9.392;2022-07-12T00:42:47;7.13;;;6.43;;
813;SDS011;389;48.710;9.392;2022-07-12T00:45:13;8.50;;;6.53;;
813;SDS011;389;48.710;9.392;2022-07-12T00:47:43;6.83;;;6.23;;
813;SDS011;389;48.710;9.392;2022-07-12T00:52:37;6.60;;;6.00;;
813;SDS011;389;48.710;9.392;2022-07-12T00:55:04;7.87;;;6.33;;
813;SDS011;389;48.710;9.392;2022-07-12T00:57:31;9.60;;;6.10;;
813;SDS011;389;48.710;9.392;2022-07-12T01:00:07;7.77;;;7.07;;
813;SDS011;389;48.710;9.392;2022-07-12T01:02:34;7.43;;;6.67;;
813;SDS011;389;48.710;9.392;2022-07-12T01:05:03;7.60;;;6.63;;
813;SDS011;389;48.710;9.392;2022-07-12T01:07:30;7.60;;;6.80;;
813;SDS011;389;48.710;9.392;2022-07-12T01:09:56;6.93;;;6.23;;
813;SDS011;389;48.710;9.392;2022-07-12T01:12:24;8.20;;;6.50;;
813;SDS011;389;48.710;9.392;2022-07-12T01:14:50;8.03;;;6.40;;
813;SDS011;389;48.710;9.392;2022-07-12T01:17:20;6.57;;;5.97;;
813;SDS011;389;48.710;9.392;2022-07-12T01:20:03;7.17;;;6.47;;
813;SDS011;389;48.710;9.392;2022-07-12T01:22:31;7.20;;;6.30;;
813;SDS011;389;48.710;9.392;2022-07-12T01:24:59;6.90;;;6.20;;
813;SDS011;389;48.710;9.392;2022-07-12T01:27:25;8.23;;;6.50;;
813;SDS011;389;48.710;9.392;2022-07-12T01:29:52;7.30;;;6.60;;
813;SDS011;389;48.710;9.392;2022-07-12T01:32:18;6.27;;;5.67;;
813;SDS011;389;48.710;9.392;2022-07-12T01:34:50;7.50;;;6.03;;
813;SDS011;389;48.710;9.392;2022-07-12T01:37:17;6.63;;;6.03;;
813;SDS011;389;48.710;9.392;2022-07-12T01:39:44;6.73;;;6.13;;
813;SDS011;389;48.710;9.392;2022-07-12T01:42:11;8.60;;;6.47;;
813;SDS011;389;48.710;9.392;2022-07-12T01:44:37;7.80;;;7.00;;
813;SDS011;389;48.710;9.392;2022-07-12T01:47:02;10.00;;;7.00;;
813;SDS011;389;48.710;9.392;2022-07-12T01:49:28;7.20;;;6.30;;
813;SDS011;389;48.710;9.392;2022-07-12T01:51:54;8.03;;;6.70;;
813;SDS011;389;48.710;9.392;2022-07-12T01:54:20;6.20;;;5.60;;
813;SDS011;389;48.710;9.392;2022-07-12T01:56:47;9.33;;;6.37;;
813;SDS011;389;48.710;9.392;2022-07-12T01:59:12;8.20;;;6.87;;
813;SDS011;389;48.710;9.392;2022-07-12T02:01:38;7.30;;;6.57;;
813;SDS011;389;48.710;9.392;2022-07-12T02:04:05;7.50;;;6.70;;
813;SDS011;389;48.710;9.392;2022-07-12T02:06:31;7.43;;;6.50;;
813;SDS011;389;48.710;9.392;2022-07-12T02:08:58;7.93;;;6.93;;
813;SDS011;389;48.710;9.392;2022-07-12T02:11:23;6.63;;;5.97;;
813;SDS011;389;48.710;9.392;2022-07-12T02:13:49;9.10;;;6.47;;
813;SDS011;389;48.710;9.392;2022-07-12T02:16:15;7.10;;;6.40;;
813;SDS011;389;48.710;9.392;2022-07-12T02:18:42;7.10;;;6.33;;
813;SDS011;389;48.710;9.392;2022-07-12T02:21:08;8.73;;;7.17;;
813;SDS011;389;48.710;9.392;2022-07-12T02:23:33;8.00;;;6.43;;
813;SDS011;389;48.710;9.392;2022-07-12T02:25:59;7.30;;;6.60;;
813;SDS011;389;48.710;9.392;2022-07-12T02:28:25;8.53;;;7.30;;
813;SDS011;389;48.710;9.392;2022-07-12T02:30:50;7.27;;;6.57;;
813;SDS011;389;48.710;9.392;2022-07-12T02:33:16;7.30;;;6.50;;
813;SDS011;389;48.710;9.392;2022-07-12T02:35:43;7.10;;;6.40;;
813;SDS011;389;48.710;9.392;2022-07-12T02:38:09;7.70;;;6.90;;
813;SDS011;389;48.710;9.392;2022-07-12T02:40:35;7.00;;;6.40;;
813;SDS011;389;48.710;9.392;2022-07-12T02:43:19;6.60;;;6.00;;
813;SDS011;389;48.710;9.392;2022-07-12T02:45:52;10.70;;;7.27;;
813;SDS011;389;48.710;9.392;2022-07-12T02:48:23;8.30;;;6.97;;
813;SDS011;389;48.710;9.392;2022-07-12T02:50:48;7.10;;;6.40;;
813;SDS011;389;48.710;9.392;2022-07-12T02:53:14;8.10;;;6.40;;
813;SDS011;389;48.710;9.392;2022-07-12T02:55:40;8.17;;;7.03;;
813;SDS011;389;48.710;9.392;2022-07-12T02:58:06;10.47;;;7.43;;
813;SDS011;389;48.710;9.392;2022-07-12T03:00:33;8.97;;;7.30;;
813;SDS011;389;48.710;9.392;2022-07-12T03:03:00;7.67;;;6.83;;
813;SDS011;389;48.710;9.392;2022-07-12T03:05:25;8.40;;;7.50;;
813;SDS011;389;48.710;9.392;2022-07-12T03:07:51;9.27;;;7.33;;
813;SDS011;389;48.710;9.392;2022-07-12T03:10:17;8.23;;;6.80;;
813;SDS011;389;48.710;9.392;2022-07-12T03:12:43;10.63;;;7.27;;
813;SDS011;389;48.710;9.392;2022-07-12T03:15:09;8.73;;;7.70;;
813;SDS011;389;48.710;9.392;2022-07-12T03:17:34;9.63;;;7.77;;
813;SDS011;389;48.710;9.392;2022-07-12T03:20:01;9.57;;;7.63;;
813;SDS011;389;48.710;9.392;2022-07-12T03:22:28;10.03;;;7.97;;
813;SDS011;389;48.710;9.392;2022-07-12T03:24:53;9.60;;;8.07;;
813;SDS011;389;48.710;9.392;2022-07-12T03:27:19;8.77;;;7.87;;
813;SDS011;389;48.710;9.392;2022-07-12T03:29:45;10.20;;;7.77;;
813;SDS011;389;48.710;9.392;2022-07-12T03:32:10;8.63;;;7.70;;
813;SDS011;389;48.710;9.392;2022-07-12T03:34:36;10.57;;;8.67;;
813;SDS011;389;48.710;9.392;2022-07-12T03:37:02;9.63;;;8.37;;
813;SDS011;389;48.710;9.392;2022-07-12T03:39:29;11.40;;;7.80;;
813;SDS011;389;48.710;9.392;2022-07-12T03:41:55;9.73;;;8.10;;
813;SDS011;389;48.710;9.392;2022-07-12T03:44:21;10.10;;;8.27;;
813;SDS011;389;48.710;9.392;2022-07-12T03:46:47;21.03;;;9.43;;
813;SDS011;389;48.710;9.392;2022-07-12T03:49:12;10.43;;;8.40;;
813;SDS011;389;48.710;9.392;2022-07-12T03:51:38;9.40;;;8.10;;
813;SDS011;389;48.710;9.392;2022-07-12T03:54:05;10.43;;;8.20;;
813;SDS011;389;48.710;9.392;2022-07-12T03:56:32;9.70;;;8.40;;
813;SDS011;389;48.710;9.392;2022-07-12T03:59:22;9.40;;;7.97;;
813;SDS011;389;48.710;9.392;2022-07-12T04:01:47;10.60;;;8.50;;
813;SDS011;389;48.710;9.392;2022-07-12T04:04:13;9.57;;;8.07;;
813;SDS011;389;48.710;9.392;2022-07-12T04:06:38;9.13;;;7.90;;
813;SDS011;389;48.710;9.392;2022-07-12T04:09:04;8.90;;;7.80;;
813;SDS011;389;48.710;9.392;2022-07-12T04:11:31;9.20;;;7.67;;
813;SDS011;389;48.710;9.392;2022-07-12T04:13:57;9.67;;;8.00;;
813;SDS011;389;48.710;9.392;2022-07-12T04:16:23;11.10;;;8.47;;
813;SDS011;389;48.710;9.392;2022-07-12T04:18:49;11.30;;;7.60;;
813;SDS011;389;48.710;9.392;2022-07-12T04:21:20;10.00;;;7.50;;
813;SDS011;389;48.710;9.392;2022-07-12T04:23:46;7.57;;;6.87;;
813;SDS011;389;48.710;9.392;2022-07-12T04:26:12;8.50;;;7.07;;
813;SDS011;389;48.710;9.392;2022-07-12T04:28:37;8.47;;;6.77;;
813;SDS011;389;48.710;9.392;2022-07-12T04:31:03;7.03;;;6.33;;
813;SDS011;389;48.710;9.392;2022-07-12T04:33:28;7.70;;;6.70;;
813;SDS011;389;48.710;9.392;2022-07-12T04:35:54;9.50;;;7.10;;
813;SDS011;389;48.710;9.392;2022-07-12T04:38:20;9.00;;;7.43;;
813;SDS011;389;48.710;9.392;2022-07-12T04:40:45;7.87;;;7.07;;
813;SDS011;389;48.710;9.392;2022-07-12T04:43:11;7.87;;;6.77;;
813;SDS011;389;48.710;9.392;2022-07-12T04:45:36;7.43;;;6.70;;
813;SDS011;389;48.710;9.392;2022-07-12T04:48:02;7.40;;;6.63;;
813;SDS011;389;48.710;9.392;2022-07-12T04:50:28;9.10;;;6.97;;
813;SDS011;389;48.710;9.392;2022-07-12T04:52:54;10.00;;;7.73;;
813;SDS011;389;48.710;9.392;2022-07-12T04:55:19;8.83;;;7.17;;
813;SDS011;389;48.710;9.392;2022-07-12T04:57:45;7.77;;;6.97;;
813;SDS011;389;48.710;9.392;2022-07-12T05:00:11;7.67;;;6.97;;
813;SDS011;389;48.710;9.392;2022-07-12T05:02:36;7.30;;;6.60;;
813;SDS011;389;48.710;9.392;2022-07-12T05:05:02;9.73;;;6.70;;
813;SDS011;389;48.710;9.392;2022-07-12T05:07:28;6.70;;;6.00;;
813;SDS011;389;48.710;9.392;2022-07-12T05:09:54;7.67;;;5.90;;
813;SDS011;389;48.710;9.392;2022-07-12T05:12:19;6.60;;;6.07;;
813;SDS011;389;48.710;9.392;2022-07-12T05:14:45;6.73;;;6.13;;
813;SDS011;389;48.710;9.392;2022-07-12T05:17:11;6.23;;;5.73;;
813;SDS011;389;48.710;9.392;2022-07-12T05:19:37;6.90;;;6.23;;
813;SDS011;389;48.710;9.392;2022-07-12T05:22:03;6.70;;;6.10;;
813;SDS011;389;48.710;9.392;2022-07-12T05:24:29;6.20;;;5.60;;
813;SDS011;389;48.710;9.392;2022-07-12T05:26:54;6.60;;;6.00;;
813;SDS011;389;48.710;9.392;2022-07-12T05:29:20;6.63;;;5.87;;
813;SDS011;389;48.710;9.392;2022-07-12T05:31:46;5.90;;;5.40;;
813;SDS011;389;48.710;9.392;2022-07-12T05:34:11;5.10;;;4.70;;
813;SDS011;389;48.710;9.392;2022-07-12T05:36:37;5.60;;;5.10;;
813;SDS011;389;48.710;9.392;2022-07-12T05:39:03;5.90;;;5.30;;
813;SDS011;389;48.710;9.392;2022-07-12T05:41:29;7.93;;;7.23;;
813;SDS011;389;48.710;9.392;2022-07-12T05:43:54;5.80;;;5.20;;
813;SDS011;389;48.710;9.392;2022-07-12T05:46:20;5.83;;;5.43;;
813;SDS011;389;48.710;9.392;2022-07-12T05:48:46;5.30;;;4.80;;
813;SDS011;389;48.710;9.392;2022-07-12T05:51:11;5.57;;;5.07;;
813;SDS011;389;48.710;9.392;2022-07-12T05:53:55;5.63;;;5.13;;
813;SDS011;389;48.710;9.392;2022-07-12T05:56:21;5.40;;;4.90;;
813;SDS011;389;48.710;9.392;2022-07-12T05:58:46;7.20;;;4.63;;
813;SDS011;389;48.710;9.392;2022-07-12T06:01:12;5.20;;;4.70;;
813;SDS011;389;48.710;9.392;2022-07-12T06:03:37;5.93;;;5.43;;
813;SDS011;389;48.710;9.392;2022-07-12T06:06:03;5.53;;;5.13;;
813;SDS011;389;48.710;9.392;2022-07-12T06:08:29;5.40;;;4.90;;
813;SDS011;389;48.710;9.392;2022-07-12T06:10:54;5.60;;;5.20;;
813;SDS011;389;48.710;9.392;2022-07-12T06:13:20;5.40;;;4.90;;
813;SDS011;389;48.710;9.392;2022-07-12T06:15:45;5.43;;;4.87;;
813;SDS011;389;48.710;9.392;2022-07-12T06:18:11;7.93;;;6.00;;
813;SDS011;389;48.710;9.392;2022-07-12T06:20:36;5.87;;;5.37;;
813;SDS011;389;48.710;9.392;2022-07-12T06:23:02;6.07;;;5.57;;
813;SDS011;389;48.710;9.392;2022-07-12T06:25:28;5.90;;;5.40;;
813;SDS011;389;48.710;9.392;2022-07-12T06:27:53;8.50;;;4.90;;
813;SDS011;389;48.710;9.392;2022-07-12T06:30:20;6.40;;;5.23;;
813;SDS011;389;48.710;9.392;2022-07-12T06:32:47;6.50;;;5.40;;
813;SDS011;389;48.710;9.392;2022-07-12T06:35:13;5.10;;;4.70;;
813;SDS011;389;48.710;9.392;2022-07-12T06:37:40;7.83;;;5.30;;
813;SDS011;389;48.710;9.392;2022-07-12T06:40:06;7.90;;;5.00;;
813;SDS011;389;48.710;9.392;2022-07-12T06:42:32;5.20;;;4.70;;
813;SDS011;389;48.710;9.392;2022-07-12T06:44:58;4.77;;;4.30;;
813;SDS011;389;48.710;9.392;2022-07-12T06:47:24;5.43;;;5.03;;
813;SDS011;389;48.710;9.392;2022-07-12T06:49:50;4.87;;;4.37;;
813;SDS011;389;48.710;9.392;2022-07-12T06:52:16;5.20;;;4.80;;
813;SDS011;389;48.710;9.392;2022-07-12T06:54:42;4.50;;;3.93;;
813;SDS011;389;48.710;9.392;2022-07-12T06:57:08;4.27;;;3.90;;
813;SDS011;389;48.710;9.392;2022-07-12T06:59:33;3.97;;;3.67;;
813;SDS011;389;48.710;9.392;2022-07-12T07:01:59;4.17;;;3.77;;
813;SDS011;389;48.710;9.392;2022-07-12T07:04:25;4.37;;;3.97;;
813;SDS011;389;48.710;9.392;2022-07-12T07:06:50;3.63;;;3.33;;
813;SDS011;389;48.710;9.392;2022-07-12T07:09:16;4.30;;;4.00;;
813;SDS011;389;48.710;9.392;2022-07-12T07:11:42;4.33;;;3.93;;
813;SDS011;389;48.710;9.392;2022-07-12T07:14:08;4.27;;;3.90;;
813;SDS011;389;48.710;9.392;2022-07-12T07:16:34;5.43;;;3.93;;
813;SDS011;389;48.710;9.392;2022-07-12T07:18:59;5.00;;;4.47;;
813;SDS011;389;48.710;9.392;2022-07-12T07:21:27;5.23;;;4.20;;
813;SDS011;389;48.710;9.392;2022-07-12T07:23:53;5.30;;;4.00;;
813;SDS011;389;48.710;9.392;2022-07-12T07:26:19;6.43;;;4.50;;
813;SDS011;389;48.710;9.392;2022-07-12T07:28:45;4.83;;;4.23;;
813;SDS011;389;48.710;9.392;2022-07-12T07:31:29;3.80;;;3.50;;
813;SDS011;389;48.710;9.392;2022-07-12T07:33:54;4.00;;;3.70;;
813;SDS011;389;48.710;9.392;2022-07-12T07:36:20;3.43;;;3.13;;
813;SDS011;389;48.710;9.392;2022-07-12T07:38:46;3.63;;;3.33;;
813;SDS011;389;48.710;9.392;2022-07-12T07:41:11;3.63;;;3.30;;
813;SDS011;389;48.710;9.392;2022-07-12T07:43:37;3.83;;;3.53;;
813;SDS011;389;48.710;9.392;2022-07-12T07:46:02;3.30;;;3.10;;
813;SDS011;389;48.710;9.392;2022-07-12T07:48:28;4.00;;;3.70;;
813;SDS011;389;48.710;9.392;2022-07-12T07:50:54;3.93;;;3.63;;
813;SDS011;389;48.710;9.392;2022-07-12T07:53:20;4.00;;;3.60;;
813;SDS011;389;48.710;9.392;2022-07-12T07:55:45;4.40;;;3.33;;
813;SDS011;389;48.710;9.392;2022-07-12T07:58:14;3.27;;;3.07;;
813;SDS011;389;48.710;9.392;2022-07-12T08:00:39;3.67;;;3.00;;
813;SDS011;389;48.710;9.392;2022-07-12T08:03:05;4.50;;;3.40;;
813;SDS011;389;48.710;9.392;2022-07-12T08:05:30;2.87;;;2.00;;
813;SDS011;389;48.710;9.392;2022-07-12T08:07:56;2.00;;;1.90;;
813;SDS011;389;48.710;9.392;2022-07-12T08:10:22;2.80;;;1.70;;
813;SDS011;389;48.710;9.392;2022-07-12T08:12:48;2.70;;;1.83;;
813;SDS011;389;48.710;9.392;2022-07-12T08:15:14;1.80;;;1.60;;
813;SDS011;389;48.710;9.392;2022-07-12T08:17:40;2.37;;;2.17;;
813;SDS011;389;48.710;9.392;2022-07-12T08:20:05;1.13;;;0.90;;
813;SDS011;389;48.710;9.392;2022-07-12T08:22:31;0.60;;;0.60;;
813;SDS011;389;48.710;9.392;2022-07-12T08:24:57;0.90;;;0.70;;
813;SDS011;389;48.710;9.392;2022-07-12T08:27:23;1.67;;;0.80;;
813;SDS011;389;48.710;9.392;2022-07-12T08:29:49;0.50;;;0.50;;
813;SDS011;389;48.710;9.392;2022-07-12T08:32:15;0.80;;;0.60;;
813;SDS011;389;48.710;9.392;2022-07-12T08:34:40;0.60;;;0.60;;
813;SDS011;389;48.710;9.392;2022-07-12T08:37:06;1.03;;;1.00;;
813;SDS011;389;48.710;9.392;2022-07-12T08:39:32;3.03;;;1.87;;
813;SDS011;389;48.710;9.392;2022-07-12T08:41:57;5.03;;;0.90;;
813;SDS011;389;48.710;9.392;2022-07-12T08:44:23;1.63;;;0.80;;
813;SDS011;389;48.710;9.392;2022-07-12T08:46:49;1.90;;;1.00;;
813;SDS011;389;48.710;9.392;2022-07-12T08:49:14;0.80;;;0.80;;
813;SDS011;389;48.710;9.392;2022-07-12T08:51:40;1.20;;;0.60;;
813;SDS011;389;48.710;9.392;2022-07-12T08:54:10;0.70;;;0.70;;
813;SDS011;389;48.710;9.392;2022-07-12T08:56:40;1.57;;;0.70;;
813;SDS011;389;48.710;9.392;2022-07-12T08:59:14;2.03;;;1.30;;
813;SDS011;389;48.710;9.392;2022-07-12T09:01:42;1.07;;;0.90;;
813;SDS011;389;48.710;9.392;2022-07-12T09:04:12;0.73;;;0.73;;
813;SDS011;389;48.710;9.392;2022-07-12T09:06:41;1.20;;;1.10;;
813;SDS011;389;48.710;9.392;2022-07-12T09:09:07;1.50;;;0.87;;
813;SDS011;389;48.710;9.392;2022-07-12T09:11:37;1.30;;;1.23;;
813;SDS011;389;48.710;9.392;2022-07-12T09:14:04;1.03;;;1.03;;
813;SDS011;389;48.710;9.392;2022-07-12T09:16:30;1.30;;;1.20;;
813;SDS011;389;48.710;9.392;2022-07-12T09:21:49;1.60;;;1.50;;
813;SDS011;389;48.710;9.392;2022-07-12T09:24:16;1.60;;;1.50;;
813;SDS011;389;48.710;9.392;2022-07-12T09:26:43;1.57;;;1.47;;
813;SDS011;389;48.710;9.392;2022-07-12T09:29:10;2.23;;;1.67;;
813;SDS011;389;48.710;9.392;2022-07-12T09:31:44;1.90;;;1.80;;
813;SDS011;389;48.710;9.392;2022-07-12T09:34:31;1.63;;;1.53;;
813;SDS011;389;48.710;9.392;2022-07-12T09:37:16;2.37;;;1.73;;
813;SDS011;389;48.710;9.392;2022-07-12T09:39:42;1.23;;;1.17;;
813;SDS011;389;48.710;9.392;2022-07-12T09:42:08;1.10;;;1.10;;
813;SDS011;389;48.710;9.392;2022-07-12T09:44:35;1.30;;;1.30;;
813;SDS011;389;48.710;9.392;2022-07-12T09:47:01;1.40;;;1.20;;
813;SDS011;389;48.710;9.392;2022-07-12T09:49:27;1.70;;;1.50;;
813;SDS011;389;48.710;9.392;2022-07-12T09:51:54;1.30;;;1.20;;
813;SDS011;389;48.710;9.392;2022-07-12T09:54:24;2.30;;;1.13;;
813;SDS011;389;48.710;9.392;2022-07-12T09:56:52;1.23;;;1.20;;
813;SDS011;389;48.710;9.392;2022-07-12T09:59:20;1.07;;;1.07;;
813;SDS011;389;48.710;9.392;2022-07-12T10:01:48;1.00;;;0.90;;
813;SDS011;389;48.710;9.392;2022-07-12T10:04:15;1.47;;;1.37;;
813;SDS011;389;48.710;9.392;2022-07-12T10:06:46;1.00;;;1.00;;
813;SDS011;389;48.710;9.392;2022-07-12T10:09:12;0.90;;;0.90;;
813;SDS011;389;48.710;9.392;2022-07-12T10:11:39;0.90;;;0.90;;
813;SDS011;389;48.710;9.392;2022-07-12T10:14:07;1.10;;;1.00;;
813;SDS011;389;48.710;9.392;2022-07-12T10:16:36;1.17;;;1.07;;
813;SDS011;389;48.710;9.392;2022-07-12T10:21:49;0.80;;;0.80;;
813;SDS011;389;48.710;9.392;2022-07-12T10:26:56;0.90;;;0.90;;
813;SDS011;389;48.710;9.392;2022-07-12T10:29:41;0.90;;;0.80;;
813;SDS011;389;48.710;9.392;2022-07-12T10:32:20;0.93;;;0.93;;
813;SDS011;389;48.710;9.392;2022-07-12T10:37:30;0.90;;;0.90;;
813;SDS011;389;48.710;9.392;2022-07-12T10:45:39;0.80;;;0.80;;
813;SDS011;389;48.710;9.392;2022-07-12T10:48:06;1.33;;;0.80;;
813;SDS011;389;48.710;9.392;2022-07-12T10:58:30;0.90;;;0.90;;
813;SDS011;389;48.710;9.392;2022-07-12T11:00:57;1.10;;;1.00;;
813;SDS011;389;48.710;9.392;2022-07-12T11:03:24;0.70;;;0.70;;
813;SDS011;389;48.710;9.392;2022-07-12T11:09:20;0.70;;;0.70;;
813;SDS011;389;48.710;9.392;2022-07-12T11:11:47;0.80;;;0.80;;
813;SDS011;389;48.710;9.392;2022-07-12T11:14:21;0.80;;;0.80;;
813;SDS011;389;48.710;9.392;2022-07-12T11:16:49;0.60;;;0.60;;
813;SDS011;389;48.710;9.392;2022-07-12T11:19:23;1.17;;;0.80;;
813;SDS011;389;48.710;9.392;2022-07-12T11:21:50;0.70;;;0.70;;
813;SDS011;389;48.710;9.392;2022-07-12T11:24:24;0.60;;;0.60;;
813;SDS011;389;48.710;9.392;2022-07-12T11:26:51;1.50;;;0.70;;
813;SDS011;389;48.710;9.392;2022-07-12T11:29:19;0.70;;;0.70;;
813;SDS011;389;48.710;9.392;2022-07-12T11:31:46;1.23;;;0.77;;
813;SDS011;389;48.710;9.392;2022-07-12T11:36:51;0.80;;;0.80;;
813;SDS011;389;48.710;9.392;2022-07-12T11:39:29;0.63;;;0.63;;
813;SDS011;389;48.710;9.392;2022-07-12T11:41:56;0.80;;;0.80;;
813;SDS011;389;48.710;9.392;2022-07-12T11:44:27;0.90;;;0.90;;
813;SDS011;389;48.710;9.392;2022-07-12T11:47:08;0.77;;;0.77;;
813;SDS011;389;48.710;9.392;2022-07-12T11:49:34;0.73;;;0.70;;
813;SDS011;389;48.710;9.392;2022-07-12T11:52:00;0.90;;;0.90;;
813;SDS011;389;48.710;9.392;2022-07-12T11:54:25;0.70;;;0.70;;
813;SDS011;389;48.710;9.392;2022-07-12T11:57:04;0.70;;;0.70;;
813;SDS011;389;48.710;9.392;2022-07-12T11:59:33;1.70;;;0.80;;
813;SDS011;389;48.710;9.392;2022-07-12T12:02:06;0.80;;;0.80;;
813;SDS011;389;48.710;9.392;2022-07-12T12:04:49;0.73;;;0.73;;
813;SDS011;389;48.710;9.392;2022-07-12T12:07:19;1.23;;;0.90;;
813;SDS011;389;48.710;9.392;2022-07-12T12:10:03;1.00;;;0.90;;
813;SDS011;389;48.710;9.392;2022-07-12T12:15:15;0.70;;;0.70;;
813;SDS011;389;48.710;9.392;2022-07-12T12:17:50;1.10;;;1.00;;
813;SDS011;389;48.710;9.392;2022-07-12T12:20:20;1.30;;;0.90;;
813;SDS011;389;48.710;9.392;2022-07-12T12:22:51;0.70;;;0.70;;
813;SDS011;389;48.710;9.392;2022-07-12T12:25:21;0.80;;;0.80;;
813;SDS011;389;48.710;9.392;2022-07-12T12:27:54;1.37;;;0.80;;
813;SDS011;389;48.710;9.392;2022-07-12T12:30:21;1.50;;;0.77;;
813;SDS011;389;48.710;9.392;2022-07-12T12:32:54;0.70;;;0.70;;
813;SDS011;389;48.710;9.392;2022-07-12T12:35:31;0.70;;;0.70;;
813;SDS011;389;48.710;9.392;2022-07-12T12:37:59;0.80;;;0.80;;
813;SDS011;389;48.710;9.392;2022-07-12T12:40:30;0.93;;;0.80;;
813;SDS011;389;48.710;9.392;2022-07-12T12:43:17;0.80;;;0.77;;
813;SDS011;389;48.710;9.392;2022-07-12T12:45:50;0.80;;;0.80;;
813;SDS011;389;48.710;9.392;2022-07-12T12:48:28;0.97;;;0.80;;
813;SDS011;389;48.710;9.392;2022-07-12T12:51:09;1.27;;;1.17;;
813;SDS011;389;48.710;9.392;2022-07-12T12:53:36;2.43;;;0.90;;
813;SDS011;389;48.710;9.392;2022-07-12T12:56:04;0.90;;;0.90;;
813;SDS011;389;48.710;9.392;2022-07-12T12:58:37;3.33;;;1.20;;
813;SDS011;389;48.710;9.392;2022-07-12T13:01:04;0.90;;;0.90;;
813;SDS011;389;48.710;9.392;2022-07-12T13:03:32;2.40;;;0.87;;
813;SDS011;389;48.710;9.392;2022-07-12T13:05:58;0.80;;;0.80;;
813;SDS011;389;48.710;9.392;2022-07-12T13:08:25;0.80;;;0.80;;
813;SDS011;389;48.710;9.392;2022-07-12T13:10:52;0.70;;;0.70;;
813;SDS011;389;48.710;9.392;2022-07-12T13:13:37;1.30;;;0.80;;
813;SDS011;389;48.710;9.392;2022-07-12T13:16:04;0.60;;;0.60;;
813;SDS011;389;48.710;9.392;2022-07-12T13:18:31;0.73;;;0.70;;
813;SDS011;389;48.710;9.392;2022-07-12T13:20:57;1.00;;;1.00;;
813;SDS011;389;48.710;9.392;2022-07-12T13:23:23;1.40;;;1.00;;
813;SDS011;389;48.710;9.392;2022-07-12T13:25:49;1.43;;;1.00;;
813;SDS011;389;48.710;9.392;2022-07-12T13:28:15;1.10;;;0.90;;
813;SDS011;389;48.710;9.392;2022-07-12T13:30:41;0.70;;;0.70;;
813;SDS011;389;48.710;9.392;2022-07-12T13:33:06;0.70;;;0.70;;
813;SDS011;389;48.710;9.392;2022-07-12T13:35:32;2.30;;;0.70;;
813;SDS011;389;48.710;9.392;2022-07-12T13:37:57;1.30;;;0.70;;
813;SDS011;389;48.710;9.392;2022-07-12T13:40:23;0.80;;;0.80;;
813;SDS011;389;48.710;9.392;2022-07-12T13:42:50;0.80;;;0.80;;
813;SDS011;389;48.710;9.392;2022-07-12T13:45:17;0.70;;;0.70;;
813;SDS011;389;48.710;9.392;2022-07-12T13:48:14;0.77;;;0.77;;
813;SDS011;389;48.710;9.392;2022-07-12T13:50:40;0.73;;;0.73;;
813;SDS011;389;48.710;9.392;2022-07-12T13:53:05;1.53;;;1.00;;
813;SDS011;389;48.710;9.392;2022-07-12T13:55:32;0.70;;;0.70;;
813;SDS011;389;48.710;9.392;2022-07-12T13:57:58;0.80;;;0.80;;
813;SDS011;389;48.710;9.392;2022-07-12T14:00:24;0.80;;;0.80;;
813;SDS011;389;48.710;9.392;2022-07-12T14:02:50;1.00;;;0.80;;
813;SDS011;389;48.710;9.392;2022-07-12T14:05:16;0.80;;;0.70;;
813;SDS011;389;48.710;9.392;2022-07-12T14:07:42;0.80;;;0.80;;
813;SDS011;389;48.710;9.392;2022-07-12T14:10:10;1.83;;;0.90;;
813;SDS011;389;48.710;9.392;2022-07-12T14:12:37;2.43;;;0.90;;
813;SDS011;389;48.710;9.392;2022-07-12T14:15:03;1.17;;;0.70;;
813;SDS011;389;48.710;9.392;2022-07-12T14:17:39;0.90;;;0.70;;
813;SDS011;389;48.710;9.392;2022-07-12T14:20:19;0.80;;;0.80;;
813;SDS011;389;48.710;9.392;2022-07-12T14:22:46;0.77;;;0.77;;
813;SDS011;389;48.710;9.392;2022-07-12T14:25:12;0.60;;;0.60;;
813;SDS011;389;48.710;9.392;2022-07-12T14:27:38;0.70;;;0.70;;
813;SDS011;389;48.710;9.392;2022-07-12T14:30:06;0.70;;;0.70;;
813;SDS011;389;48.710;9.392;2022-07-12T14:32:33;0.80;;;0.80;;
813;SDS011;389;48.710;9.392;2022-07-12T14:35:00;1.27;;;0.90;;
813;SDS011;389;48.710;9.392;2022-07-12T14:37:26;2.40;;;0.80;;
813;SDS011;389;48.710;9.392;2022-07-12T14:39:51;2.10;;;0.90;;
813;SDS011;389;48.710;9.392;2022-07-12T14:42:17;0.80;;;0.80;;
813;SDS011;389;48.710;9.392;2022-07-12T14:44:43;0.80;;;0.80;;
813;SDS011;389;48.710;9.392;2022-07-12T14:47:09;1.23;;;0.70;;
813;SDS011;389;48.710;9.392;2022-07-12T14:49:35;0.93;;;0.60;;
813;SDS011;389;48.710;9.392;2022-07-12T14:52:02;1.03;;;0.70;;
813;SDS011;389;48.710;9.392;2022-07-12T14:54:28;1.67;;;0.80;;
813;SDS011;389;48.710;9.392;2022-07-12T14:56:53;1.30;;;0.80;;
813;SDS011;389;48.710;9.392;2022-07-12T14:59:19;0.80;;;0.80;;
813;SDS011;389;48.710;9.392;2022-07-12T15:01:45;0.80;;;0.80;;
813;SDS011;389;48.710;9.392;2022-07-12T15:04:10;1.10;;;1.00;;
813;SDS011;389;48.710;9.392;2022-07-12T15:06:39;1.07;;;1.00;;
813;SDS011;389;48.710;9.392;2022-07-12T15:09:07;0.83;;;0.83;;
813;SDS011;389;48.710;9.392;2022-07-12T15:11:33;1.27;;;0.90;;
813;SDS011;389;48.710;9.392;2022-07-12T15:13:59;1.70;;;0.90;;
813;SDS011;389;48.710;9.392;2022-07-12T15:16:24;1.23;;;1.00;;
813;SDS011;389;48.710;9.392;2022-07-12T15:18:50;0.80;;;0.80;;
813;SDS011;389;48.710;9.392;2022-07-12T15:21:16;1.00;;;0.90;;
813;SDS011;389;48.710;9.392;2022-07-12T15:23:41;0.70;;;0.70;;
813;SDS011;389;48.710;9.392;2022-07-12T15:26:07;1.30;;;0.80;;
813;SDS011;389;48.710;9.392;2022-07-12T15:28:33;1.33;;;0.97;;
813;SDS011;389;48.710;9.392;2022-07-12T15:31:12;1.00;;;0.90;;
813;SDS011;389;48.710;9.392;2022-07-12T15:33:39;0.80;;;0.80;;
813;SDS011;389;48.710;9.392;2022-07-12T15:36:04;1.40;;;0.83;;
813;SDS011;389;48.710;9.392;2022-07-12T15:38:30;0.80;;;0.80;;
813;SDS011;389;48.710;9.392;2022-07-12T15:40:55;1.00;;;1.00;;
813;SDS011;389;48.710;9.392;2022-07-12T15:43:21;0.70;;;0.70;;
813;SDS011;389;48.710;9.392;2022-07-12T15:45:47;3.00;;;0.90;;
813;SDS011;389;48.710;9.392;2022-07-12T15:48:12;7.77;;;1.17;;
813;SDS011;389;48.710;9.392;2022-07-12T15:50:38;1.43;;;0.90;;
813;SDS011;389;48.710;9.392;2022-07-12T15:53:04;1.43;;;1.13;;
813;SDS011;389;48.710;9.392;2022-07-12T15:55:48;2.00;;;1.10;;
813;SDS011;389;48.710;9.392;2022-07-12T15:58:14;2.60;;;0.80;;
813;SDS011;389;48.710;9.392;2022-07-12T16:00:39;0.87;;;0.87;;
813;SDS011;389;48.710;9.392;2022-07-12T16:03:05;1.50;;;0.70;;
813;SDS011;389;48.710;9.392;2022-07-12T16:05:30;1.20;;;0.90;;
813;SDS011;389;48.710;9.392;2022-07-12T16:07:56;1.47;;;0.87;;
813;SDS011;389;48.710;9.392;2022-07-12T16:10:22;0.83;;;0.83;;
813;SDS011;389;48.710;9.392;2022-07-12T16:12:48;0.77;;;0.77;;
813;SDS011;389;48.710;9.392;2022-07-12T16:15:13;0.77;;;0.77;;
813;SDS011;389;48.710;9.392;2022-07-12T16:17:40;0.77;;;0.77;;
813;SDS011;389;48.710;9.392;2022-07-12T16:20:07;0.90;;;0.90;;
813;SDS011;389;48.710;9.392;2022-07-12T16:22:33;0.80;;;0.80;;